PDT,Max TemperatureF,Mean TemperatureF,Min TemperatureF,Max Dew PointF,MeanDew PointF,Min DewpointF,Max Humidity, Mean Humidity, Min Humidity, Max Sea Level PressureIn, Mean Sea Level PressureIn, Min Sea Level PressureIn, Max VisibilityMiles, Mean VisibilityMiles, Min VisibilityMiles, Max Wind SpeedMPH, Mean Wind SpeedMPH, Max Gust SpeedMPH,PrecipitationIn, CloudCover, Events, WindDirDegrees
2012-10-1,71,58,44,63,53,45,100,84,56,30.38,30.23,30.12,10,10,4,12,4,18,0.00,2,,180
2012-10-2,59,52,46,48,41,34,88,63,41,30.31,30.22,30.19,10,10,2,22,11,29,0.00,0,,345
2012-10-3,64,53,42,41,36,30,81,52,31,30.42,30.35,30.30,10,10,4,17,8,24,0.00,0,,338
2012-10-4,62,50,37,45,40,36,100,72,39,30.33,30.30,30.26,10,9,2,16,4,17,0.00,0,,317
2012-10-5,64,50,37,45,39,34,93,64,34,30.33,30.28,30.23,10,10,7,14,5,,0.00,0,,329
2012-10-6,66,54,42,45,40,36,87,61,35,30.27,30.22,30.14,10,10,4,13,4,,0.00,0,,338
2012-10-7,68,55,42,50,45,43,100,73,46,30.14,30.04,29.94,10,10,8,12,5,,0.00,0,,330
2012-10-8,71,56,42,50,47,43,100,81,40,30.04,29.97,29.94,10,10,5,7,2,,0.00,0,,211
2012-10-9,55,50,44,54,49,45,100,98,88,30.15,30.10,30.05,10,5,0,6,2,,0.00,5,,172
2012-10-10,53,46,39,52,47,39,100,99,94,30.06,30.03,30.00,10,6,0,6,1,,0.00,7,,179
2012-10-11,55,50,46,50,48,46,100,95,77,30.02,29.94,29.83,10,9,3,8,2,,0.00,7,,184
2012-10-12,57,52,48,55,52,48,100,98,88,29.96,29.88,29.82,10,8,3,13,6,21,0.14,8,,147
2012-10-13,60,58,55,61,58,55,100,98,88,30.11,30.07,29.98,10,9,4,15,9,25,0.26,8,,148
2012-10-14,64,60,55,61,59,55,100,94,77,30.05,29.92,29.85,10,8,2,22,14,36,0.28,6,,170
2012-10-15,62,55,48,63,56,48,100,96,77,29.95,29.76,29.51,10,7,0,16,6,23,0.44,7,,162
2012-10-16,57,52,46,55,47,45,100,80,63,30.28,29.98,29.57,10,9,7,17,8,30,0.00,2,,248
2012-10-17,57,50,42,48,46,43,100,88,63,30.34,30.29,30.21,10,9,4,9,3,,0.00,4,,139
2012-10-18,55,50,46,55,49,46,100,92,72,30.23,30.02,29.78,10,9,4,13,3,21,0.34,6,,103
2012-10-19,59,52,44,59,51,45,100,96,77,29.82,29.77,29.72,10,9,2,17,9,24,0.23,7,,175
2012-10-20,50,46,42,46,42,39,100,87,71,29.88,29.85,29.79,10,10,10,13,5,17,0.00,5,,179
2012-10-21,51,46,41,43,41,39,100,85,62,29.89,29.85,29.81,10,10,5,13,8,22,0.04,6,,133
2012-10-22,48,44,39,46,40,36,100,89,71,29.80,29.65,29.58,10,8,4,14,8,20,0.12,4,,29
2012-10-23,51,46,42,45,43,41,100,92,67,29.89,29.80,29.66,10,10,5,13,7,21,0.09,6,,118
2012-10-24,51,46,42,45,43,41,100,93,71,30.18,29.99,29.88,10,9,5,13,7,17,0.07,6,,66
2012-10-25,51,46,42,46,44,43,100,92,76,30.43,30.36,30.20,10,10,3,9,3,,0.08,5,,61
2012-10-26,46,45,44,46,43,39,100,90,76,30.34,30.16,30.02,10,9,2,14,9,17,0.17,5,,73
2012-10-27,55,50,46,55,50,46,100,98,88,30.02,29.92,29.75,10,7,3,14,6,18,0.33,8,,111
2012-10-28,57,54,51,57,54,52,100,98,88,29.95,29.89,29.78,10,9,2,9,5,,0.07,7,,189
2012-10-29,62,56,51,59,54,52,100,95,77,29.98,29.84,29.69,10,8,2,15,6,24,0.05,7,,166
2012-10-30,60,56,53,61,55,54,100,99,94,29.95,29.84,29.74,10,7,3,14,8,18,0.39,8,,93
2012-10-31,64,58,53,61,56,52,100,95,73,29.75,29.67,29.60,10,8,4,18,8,29,0.31,7,,115